Terminal Aerodrome Forecast
Issued by NWS Jackson, MS

Home | Current Version | Previous Version | Text Only | Print | Product List | Glossary On
Versions: 1 2 3 4 5 6 7 8 9 10 11 12 13 14 15 16 17 18
000
FTUS44 KJAN 301024 AAA
TAFMEI
TAF AMD
KMEI 301024Z 3010/3106 VRB03KT 1SM BR BKN009
     FM301300 18004KT 5SM BR BKN009 OVC015
     FM301430 19006KT P6SM SCT020 BKN040
     FM302000 20007KT 5SM -TSRA SCT030 BKN050CB
     FM310200 21006KT 6SM -SHRA VCTS SCT030 BKN050CB BKN150=

USA.gov is the U.S. government's official web portal to all federal, state and local government web resources and services.